Time;durP1;ratioP1;P1;durP2;ratioP2;P2;SDS_P1;SDS_P2;PMS_P1;PMS_P2;Temp;Humidity;BMP_temperature;BMP_pressure;BME280_temperature;BME280_humidity;BME280_pressure;Samples;Min_cycle;Max_cycle;Signal;HPM_P1;HPM_P2
2022/03/21 00:00:46;;;;;;;10.10;5.53;;;7.20;99.90;;;;;;4987271;28;20214;-48
2022/03/21 00:03:15;;;;;;;6.77;5.00;;;7.20;99.90;;;;;;5009017;28;20209;-43
2022/03/21 00:05:43;;;;;;;7.17;4.87;;;7.20;99.90;;;;;;5010437;28;20281;-48
2022/03/21 00:08:11;;;;;;;6.40;4.67;;;7.10;99.90;;;;;;5000876;28;20202;-44
2022/03/21 00:10:39;;;;;;;6.50;4.83;;;7.10;99.90;;;;;;5010553;28;20198;-49
2022/03/21 00:13:08;;;;;;;7.60;4.97;;;7.10;99.90;;;;;;4994582;28;21484;-48
2022/03/21 00:15:36;;;;;;;8.37;5.13;;;7.10;99.90;;;;;;4983169;28;20217;-49
2022/03/21 00:18:04;;;;;;;8.80;5.77;;;7.00;99.90;;;;;;5009740;28;20226;-43
2022/03/21 00:20:32;;;;;;;9.73;5.03;;;7.00;99.90;;;;;;5020170;28;20477;-48
2022/03/21 00:23:00;;;;;;;6.83;4.50;;;6.90;99.90;;;;;;4987227;28;20613;-43
2022/03/21 00:25:27;;;;;;;7.90;5.67;;;6.90;99.90;;;;;;5016564;28;20206;-45
2022/03/21 00:27:54;;;;;;;6.73;4.93;;;6.90;99.90;;;;;;4993477;28;20206;-47
2022/03/21 00:30:23;;;;;;;10.13;5.70;;;7.00;99.90;;;;;;4993817;28;20795;-48
2022/03/21 00:32:50;;;;;;;10.90;5.57;;;7.00;99.90;;;;;;4978403;28;21054;-46
2022/03/21 00:35:17;;;;;;;6.80;4.87;;;6.90;99.90;;;;;;5018635;28;20213;-47
2022/03/21 00:37:45;;;;;;;7.83;5.20;;;6.80;99.90;;;;;;4994090;28;20265;-47
2022/03/21 00:40:14;;;;;;;11.53;5.67;;;6.80;99.90;;;;;;5017274;28;20281;-46
2022/03/21 00:42:42;;;;;;;7.20;5.37;;;6.80;99.90;;;;;;4993411;28;20240;-50
2022/03/21 00:45:12;;;;;;;6.23;5.07;;;6.80;99.90;;;;;;5000262;28;20207;-47
2022/03/21 00:47:40;;;;;;;7.77;5.30;;;6.90;99.90;;;;;;4996221;28;20230;-49
2022/03/21 00:50:09;;;;;;;9.27;5.30;;;6.70;99.90;;;;;;5010573;28;20210;-44
2022/03/21 00:52:40;;;;;;;9.70;5.03;;;6.70;99.90;;;;;;5005336;28;20230;-48
2022/03/21 00:55:09;;;;;;;9.47;5.20;;;6.70;99.90;;;;;;4996221;28;20209;-45
2022/03/21 00:57:36;;;;;;;8.40;5.03;;;6.70;99.90;;;;;;5005394;28;20605;-49
2022/03/21 01:00:04;;;;;;;7.20;5.17;;;6.70;99.90;;;;;;5007869;28;20206;-44
2022/03/21 01:02:31;;;;;;;8.53;5.23;;;6.60;99.90;;;;;;4973517;28;20783;-49
2022/03/21 01:04:59;;;;;;;8.23;5.03;;;6.60;99.90;;;;;;5011447;28;20201;-45
2022/03/21 01:07:26;;;;;;;9.20;5.53;;;6.60;99.90;;;;;;5019159;28;20210;-45
2022/03/21 01:09:53;;;;;;;6.50;4.47;;;6.50;99.90;;;;;;4985723;28;20662;-43
2022/03/21 01:12:20;;;;;;;10.13;5.20;;;6.50;99.90;;;;;;5015499;28;20202;-46
2022/03/21 01:14:47;;;;;;;7.20;5.33;;;6.40;99.90;;;;;;4997297;28;20381;-44
2022/03/21 01:17:15;;;;;;;6.43;5.00;;;6.40;99.90;;;;;;4985760;28;20225;-44
2022/03/21 01:19:42;;;;;;;8.33;5.53;;;6.40;99.90;;;;;;5011451;28;20206;-49
2022/03/21 01:22:10;;;;;;;7.93;4.93;;;6.30;99.90;;;;;;5012110;28;20205;-44
2022/03/21 01:24:38;;;;;;;8.97;5.80;;;6.30;99.90;;;;;;4993055;28;20285;-49
2022/03/21 01:27:06;;;;;;;8.10;5.30;;;6.30;99.90;;;;;;5009529;28;20269;-45
2022/03/21 01:29:34;;;;;;;7.27;5.17;;;6.10;99.90;;;;;;4996461;28;20552;-49
2022/03/21 01:32:01;;;;;;;8.47;5.20;;;6.10;99.90;;;;;;4991175;28;20202;-45
2022/03/21 01:34:28;;;;;;;9.47;5.43;;;6.00;99.90;;;;;;4996619;28;20231;-48
2022/03/21 01:36:55;;;;;;;7.97;5.17;;;6.00;99.90;;;;;;5004674;28;21317;-44
2022/03/21 01:39:24;;;;;;;9.43;6.00;;;5.90;99.90;;;;;;4987738;28;20229;-45
2022/03/21 01:41:51;;;;;;;10.37;5.40;;;6.00;99.90;;;;;;4999165;28;20578;-45
2022/03/21 01:44:18;;;;;;;9.23;5.50;;;6.00;99.90;;;;;;5000312;28;20492;-45
2022/03/21 01:46:45;;;;;;;8.67;5.37;;;5.90;99.90;;;;;;4987591;28;20238;-45
2022/03/21 01:49:13;;;;;;;7.77;4.87;;;5.90;99.90;;;;;;4992253;28;20389;-45
2022/03/21 01:51:42;;;;;;;12.80;5.80;;;5.90;99.90;;;;;;5007498;28;20548;-44
2022/03/21 01:57:05;;;;;;;7.33;5.53;;;5.70;99.90;;;;;;4981526;28;20522;-46
2022/03/21 01:59:33;;;;;;;7.60;5.20;;;5.70;99.90;;;;;;5001007;28;20234;-45
2022/03/21 02:02:00;;;;;;;8.33;5.30;;;5.60;99.90;;;;;;5008190;28;20521;-44
2022/03/21 02:04:27;;;;;;;7.40;5.27;;;5.70;99.90;;;;;;4993143;28;20244;-45
2022/03/21 02:06:54;;;;;;;7.70;4.97;;;5.70;99.90;;;;;;5015415;28;20408;-44
2022/03/21 02:09:21;;;;;;;8.23;5.37;;;5.60;99.90;;;;;;4982311;28;20502;-44
2022/03/21 02:11:48;;;;;;;9.43;5.63;;;5.70;99.90;;;;;;5007737;28;20269;-44
2022/03/21 02:14:17;;;;;;;9.97;5.60;;;5.80;99.90;;;;;;5006639;28;20234;-44
2022/03/21 02:16:44;;;;;;;8.93;5.47;;;5.90;99.90;;;;;;5001172;28;20544;-45
2022/03/21 02:19:21;;;;;;;8.87;5.67;;;6.00;99.90;;;;;;4994115;28;20566;-46
2022/03/21 02:21:58;;;;;;;9.53;4.97;;;6.10;99.90;;;;;;5013161;28;20208;-48
2022/03/21 02:24:35;;;;;;;9.13;5.80;;;6.20;99.90;;;;;;4984132;28;20224;-49
2022/03/21 02:27:04;;;;;;;7.67;5.37;;;6.10;99.90;;;;;;5009040;28;20210;-46
2022/03/21 02:29:31;;;;;;;6.60;4.70;;;6.10;99.90;;;;;;5011966;28;20490;-46
2022/03/21 02:31:58;;;;;;;9.20;5.60;;;6.10;99.90;;;;;;4984472;28;20285;-45
2022/03/21 02:34:26;;;;;;;8.10;5.60;;;6.10;99.90;;;;;;4998124;28;20220;-49
2022/03/21 02:36:58;;;;;;;7.53;5.57;;;6.20;99.90;;;;;;5011972;28;20305;-43
2022/03/21 02:39:27;;;;;;;8.40;5.30;;;6.30;99.90;;;;;;4989305;28;20296;-48
2022/03/21 02:41:55;;;;;;;6.83;5.03;;;6.30;99.90;;;;;;5007659;28;20204;-45
2022/03/21 02:44:23;;;;;;;8.80;5.87;;;6.40;99.90;;;;;;5001749;28;20312;-49
2022/03/21 02:46:50;;;;;;;8.40;4.83;;;6.40;99.90;;;;;;5005065;28;20284;-46
2022/03/21 02:49:18;;;;;;;9.07;5.47;;;6.40;99.90;;;;;;5004182;28;20230;-49
2022/03/21 02:51:45;;;;;;;8.13;5.50;;;6.50;99.90;;;;;;5011415;28;20506;-43
2022/03/21 02:54:13;;;;;;;8.43;5.97;;;6.50;99.90;;;;;;4986231;28;20333;-49
2022/03/21 02:56:41;;;;;;;7.73;5.47;;;6.50;99.90;;;;;;4997700;28;20209;-46
2022/03/21 02:59:08;;;;;;;9.63;5.97;;;6.60;99.90;;;;;;5013579;28;20560;-46
2022/03/21 03:01:36;;;;;;;7.70;5.53;;;6.60;99.90;;;;;;4974819;28;20339;-45
2022/03/21 03:04:04;;;;;;;8.47;5.60;;;6.60;99.90;;;;;;5017524;28;20225;-44
2022/03/21 03:06:30;;;;;;;13.97;5.47;;;6.50;99.90;;;;;;4995428;28;20255;-45
2022/03/21 03:08:57;;;;;;;10.87;5.73;;;6.60;99.90;;;;;;5015139;28;20320;-45
2022/03/21 03:11:24;;;;;;;12.30;5.93;;;6.60;99.90;;;;;;4987917;28;20570;-46
2022/03/21 03:13:51;;;;;;;10.63;5.93;;;6.60;99.90;;;;;;5014523;28;20237;-45
2022/03/21 03:16:18;;;;;;;8.13;5.63;;;6.60;99.90;;;;;;5015000;28;20206;-46
2022/03/21 03:18:47;;;;;;;7.77;5.83;;;6.60;99.90;;;;;;5003502;28;20289;-45
2022/03/21 03:21:19;;;;;;;12.63;6.27;;;6.60;99.90;;;;;;4998174;28;20225;-46
2022/03/21 03:23:49;;;;;;;13.13;6.33;;;6.60;99.90;;;;;;5006918;28;20891;-44
2022/03/21 03:26:22;;;;;;;8.47;5.63;;;6.60;99.90;;;;;;4993453;28;20248;-46
2022/03/21 03:28:49;;;;;;;8.23;5.70;;;6.60;99.90;;;;;;5004059;28;20206;-45
2022/03/21 03:31:18;;;;;;;13.80;6.17;;;6.50;99.90;;;;;;5013440;28;20235;-45
2022/03/21 03:33:47;;;;;;;7.97;5.73;;;6.60;99.90;;;;;;4995243;28;20229;-44
2022/03/21 03:36:15;;;;;;;10.40;5.73;;;6.50;99.90;;;;;;5009509;28;20206;-47
2022/03/21 03:38:42;;;;;;;8.10;5.27;;;6.60;99.90;;;;;;5005439;28;20297;-46
2022/03/21 03:41:10;;;;;;;11.50;6.10;;;6.50;99.90;;;;;;5006183;28;20682;-46
2022/03/21 03:43:37;;;;;;;8.47;5.80;;;6.50;99.90;;;;;;4995892;28;20240;-45
2022/03/21 03:46:04;;;;;;;9.23;5.47;;;6.60;99.90;;;;;;5009044;28;20272;-46
2022/03/21 03:48:31;;;;;;;8.03;5.53;;;6.60;99.90;;;;;;5005213;28;20308;-45
2022/03/21 03:51:00;;;;;;;8.43;5.80;;;6.60;99.90;;;;;;4996890;28;20196;-45
2022/03/21 03:53:27;;;;;;;11.23;5.43;;;6.60;99.90;;;;;;4999044;28;20471;-45
2022/03/21 03:55:54;;;;;;;7.97;5.30;;;6.60;99.90;;;;;;5015126;28;20218;-46
2022/03/21 03:58:21;;;;;;;8.67;5.73;;;6.60;99.90;;;;;;4995856;28;20225;-44
2022/03/21 04:00:49;;;;;;;8.90;6.47;;;6.60;99.90;;;;;;5014411;28;20316;-49
2022/03/21 04:06:01;;;;;;;7.33;5.73;;;6.60;99.90;;;;;;4992264;28;20834;-44
2022/03/21 04:08:28;;;;;;;9.17;5.53;;;6.60;99.90;;;;;;4998687;28;20224;-45
2022/03/21 04:10:55;;;;;;;9.60;5.67;;;6.50;99.90;;;;;;5006486;28;20233;-46
2022/03/21 04:13:22;;;;;;;7.43;5.47;;;6.50;99.90;;;;;;4987133;28;20230;-44
2022/03/21 04:15:49;;;;;;;9.40;5.77;;;6.50;99.90;;;;;;5010605;28;20289;-45
2022/03/21 04:18:16;;;;;;;10.33;6.10;;;6.50;99.90;;;;;;5005568;28;20233;-46
2022/03/21 04:20:42;;;;;;;12.80;5.83;;;6.50;99.90;;;;;;4998991;28;20212;-46
2022/03/21 04:23:11;;;;;;;8.63;5.60;;;6.50;99.90;;;;;;5002012;28;20236;-46
2022/03/21 04:25:38;;;;;;;9.70;5.90;;;6.40;99.90;;;;;;5007646;28;20216;-44
2022/03/21 04:28:09;;;;;;;8.00;6.03;;;6.50;99.90;;;;;;4987866;28;20213;-45
2022/03/21 04:30:36;;;;;;;8.13;5.53;;;6.40;99.90;;;;;;5003074;28;20309;-45
2022/03/21 04:33:03;;;;;;;11.03;6.37;;;6.40;99.90;;;;;;5006734;28;20583;-45
2022/03/21 04:35:30;;;;;;;10.10;6.17;;;6.40;99.90;;;;;;4979548;28;20640;-45
2022/03/21 04:37:57;;;;;;;10.13;6.10;;;6.40;99.90;;;;;;5014092;28;20208;-44
2022/03/21 04:40:25;;;;;;;11.80;6.20;;;6.40;99.90;;;;;;4997223;28;20225;-44
2022/03/21 04:42:52;;;;;;;11.10;6.43;;;6.40;99.90;;;;;;5004067;28;20336;-44
2022/03/21 04:45:20;;;;;;;7.80;5.90;;;6.40;99.90;;;;;;4987612;28;20428;-45
2022/03/21 04:47:47;;;;;;;8.90;6.17;;;6.30;99.90;;;;;;5009652;28;20518;-45
2022/03/21 04:50:14;;;;;;;11.73;6.03;;;6.40;99.90;;;;;;4984681;28;20445;-48
2022/03/21 04:52:41;;;;;;;9.07;6.43;;;6.40;99.90;;;;;;5008314;28;20324;-46
2022/03/21 04:55:09;;;;;;;10.13;6.67;;;6.40;99.90;;;;;;4980476;28;20856;-48
2022/03/21 04:57:37;;;;;;;8.97;6.37;;;6.40;99.90;;;;;;5004543;28;20229;-45
2022/03/21 05:00:06;;;;;;;10.27;5.93;;;6.50;99.90;;;;;;4983720;28;20613;-48
2022/03/21 05:02:32;;;;;;;11.30;6.40;;;6.50;99.90;;;;;;4999248;28;20222;-44
2022/03/21 05:04:59;;;;;;;9.40;6.03;;;6.50;99.90;;;;;;4996401;28;20268;-48
2022/03/21 05:07:26;;;;;;;11.07;6.37;;;6.50;99.90;;;;;;4994156;28;20530;-46
2022/03/21 05:09:53;;;;;;;9.67;6.07;;;6.40;99.90;;;;;;5013393;28;20228;-50
2022/03/21 05:12:20;;;;;;;8.90;6.03;;;6.50;99.90;;;;;;4987619;28;20237;-45
2022/03/21 05:14:49;;;;;;;9.07;6.10;;;6.50;99.90;;;;;;5016074;28;20209;-47
2022/03/21 05:17:17;;;;;;;9.17;5.83;;;6.40;99.90;;;;;;4985120;28;20587;-47
2022/03/21 05:19:44;;;;;;;9.07;6.43;;;6.50;99.90;;;;;;5005085;28;20230;-45
2022/03/21 05:22:11;;;;;;;10.57;6.13;;;6.50;99.90;;;;;;4967851;28;20266;-46
2022/03/21 05:38:19;;;;;;;8.90;6.50;;;6.40;99.90;;;;;;4984294;28;20972;-46
2022/03/21 05:40:45;;;;;;;10.33;6.53;;;6.40;99.90;;;;;;5012113;28;20209;-44
2022/03/21 05:43:12;;;;;;;10.20;6.43;;;6.40;99.90;;;;;;4995088;28;20232;-45
2022/03/21 05:45:41;;;;;;;10.27;6.43;;;6.40;99.90;;;;;;5001071;28;20317;-44
2022/03/21 05:50:53;;;;;;;11.50;6.10;;;6.40;99.90;;;;;;5006394;28;20250;-45
2022/03/21 05:53:19;;;;;;;10.80;6.97;;;6.50;99.90;;;;;;4981611;28;20217;-44
2022/03/21 05:55:46;;;;;;;10.13;6.67;;;6.40;99.90;;;;;;5010673;28;20288;-44
2022/03/21 05:58:13;;;;;;;9.93;6.67;;;6.40;99.90;;;;;;4986001;28;21426;-45
2022/03/21 06:00:42;;;;;;;11.80;6.73;;;6.40;99.90;;;;;;4994083;28;23052;-47
2022/03/21 06:03:10;;;;;;;9.87;6.30;;;6.50;99.90;;;;;;4998558;28;20282;-48
2022/03/21 06:05:37;;;;;;;11.20;6.43;;;6.40;99.90;;;;;;4996095;28;20704;-48
2022/03/21 06:08:05;;;;;;;10.50;6.10;;;6.40;99.90;;;;;;4998690;28;20245;-43
2022/03/21 06:10:32;;;;;;;11.30;6.70;;;6.40;99.90;;;;;;5003708;28;20276;-49
2022/03/21 06:13:05;;;;;;;10.37;6.83;;;6.40;99.90;;;;;;5009717;28;20513;-43
2022/03/21 06:15:32;;;;;;;10.37;7.03;;;6.40;99.90;;;;;;4981330;28;20211;-48
2022/03/21 06:18:01;;;;;;;11.50;6.53;;;6.30;99.90;;;;;;5004139;28;20410;-46
2022/03/21 06:20:29;;;;;;;11.30;7.07;;;6.30;99.90;;;;;;4980270;28;20217;-49
2022/03/21 06:22:57;;;;;;;9.80;6.90;;;6.30;99.90;;;;;;5008379;28;20227;-46
2022/03/21 06:25:24;;;;;;;13.37;7.20;;;6.30;99.90;;;;;;5012910;28;20220;-49
2022/03/21 06:27:51;;;;;;;10.43;7.03;;;6.20;99.90;;;;;;5018688;28;20317;-45
2022/03/21 06:30:18;;;;;;;12.30;6.43;;;6.30;99.90;;;;;;5003442;28;20295;-48
2022/03/21 06:32:45;;;;;;;10.17;7.53;;;6.30;99.90;;;;;;5018585;28;20447;-44
2022/03/21 06:35:13;;;;;;;11.23;7.30;;;6.30;99.90;;;;;;5006621;28;20214;-45
2022/03/21 06:37:41;;;;;;;11.50;7.20;;;6.50;99.90;;;;;;5001226;28;20662;-45
2022/03/21 06:40:10;;;;;;;11.63;7.00;;;6.30;99.90;;;;;;5023331;28;20442;-44
2022/03/21 06:42:37;;;;;;;8.93;6.13;;;6.30;99.90;;;;;;5012825;28;20456;-45
2022/03/21 06:45:07;;;;;;;11.83;7.83;;;6.40;99.90;;;;;;5002844;28;20217;-45
2022/03/21 06:47:34;;;;;;;11.07;6.77;;;6.40;99.90;;;;;;5000842;28;20219;-48
2022/03/21 06:50:01;;;;;;;9.80;6.73;;;6.40;99.90;;;;;;5006935;28;20205;-44
2022/03/21 06:52:29;;;;;;;8.33;6.10;;;6.40;99.90;;;;;;5010122;28;20228;-48
2022/03/21 06:54:56;;;;;;;18.30;7.57;;;6.30;99.90;;;;;;4992125;28;20234;-45
2022/03/21 06:57:23;;;;;;;10.30;6.90;;;6.30;99.90;;;;;;5003525;28;20456;-44
2022/03/21 06:59:49;;;;;;;15.33;7.17;;;6.30;99.90;;;;;;5017913;28;20479;-45
2022/03/21 07:02:17;;;;;;;12.50;7.47;;;6.40;99.90;;;;;;4998178;28;20551;-44
2022/03/21 07:04:44;;;;;;;12.77;7.73;;;6.40;99.90;;;;;;4995671;28;20220;-45
2022/03/21 07:07:10;;;;;;;9.47;6.57;;;6.50;99.90;;;;;;5012465;28;20399;-44
2022/03/21 07:09:39;;;;;;;11.63;6.77;;;6.50;99.90;;;;;;5006400;28;20212;-46
2022/03/21 07:12:06;;;;;;;10.33;6.87;;;6.50;99.90;;;;;;4995004;28;20312;-45
2022/03/21 07:14:34;;;;;;;11.33;6.87;;;6.60;99.90;;;;;;5019470;28;20244;-45
2022/03/21 07:17:01;;;;;;;12.37;7.53;;;6.60;99.90;;;;;;4988878;28;20272;-44
2022/03/21 07:19:28;;;;;;;11.80;7.00;;;6.70;99.90;;;;;;5012609;28;20221;-45
2022/03/21 07:21:54;;;;;;;14.10;7.50;;;6.60;99.90;;;;;;5001943;28;20209;-46
2022/03/21 07:24:21;;;;;;;12.27;7.30;;;6.70;99.90;;;;;;5000749;28;20234;-45
2022/03/21 07:26:49;;;;;;;10.43;6.80;;;6.70;99.90;;;;;;4990823;28;20413;-44
2022/03/21 07:29:16;;;;;;;13.40;7.77;;;6.80;99.90;;;;;;5010419;28;20209;-45
2022/03/21 07:31:43;;;;;;;10.77;6.80;;;6.80;99.90;;;;;;4992728;28;21143;-45
2022/03/21 07:34:10;;;;;;;11.87;7.60;;;6.80;99.90;;;;;;5009570;28;20254;-45
2022/03/21 07:36:37;;;;;;;13.57;7.23;;;6.80;99.90;;;;;;4999561;28;20327;-46
2022/03/21 07:39:04;;;;;;;11.20;6.80;;;6.80;99.90;;;;;;4994453;28;20260;-45
2022/03/21 07:41:31;;;;;;;13.13;7.33;;;6.80;99.90;;;;;;5016226;28;20522;-46
2022/03/21 07:43:59;;;;;;;12.23;8.20;;;6.70;99.90;;;;;;4991880;28;20656;-46
2022/03/21 07:49:12;;;;;;;13.53;7.80;;;6.80;99.90;;;;;;4998496;28;20299;-45
2022/03/21 07:51:43;;;;;;;13.17;7.87;;;6.80;99.90;;;;;;5000406;28;20238;-49
2022/03/21 07:54:11;;;;;;;13.90;8.13;;;6.90;99.90;;;;;;5006304;28;20571;-43
2022/03/21 07:56:38;;;;;;;15.60;7.67;;;6.90;99.90;;;;;;5008429;28;20240;-48
2022/03/21 07:59:07;;;;;;;11.13;7.60;;;6.90;99.90;;;;;;5010602;28;20202;-46
2022/03/21 08:01:34;;;;;;;9.70;6.90;;;6.90;99.90;;;;;;4997247;28;20220;-46
2022/03/21 08:04:04;;;;;;;13.13;7.90;;;7.00;99.90;;;;;;5000134;28;20743;-45
2022/03/21 08:06:32;;;;;;;11.50;7.37;;;7.00;99.90;;;;;;4999759;28;20201;-46
2022/03/21 08:08:59;;;;;;;12.17;7.67;;;7.10;99.90;;;;;;4998499;28;21023;-45
2022/03/21 08:11:26;;;;;;;11.13;7.83;;;7.30;99.90;;;;;;5006001;28;20206;-46
2022/03/21 08:13:53;;;;;;;13.20;7.47;;;7.40;99.90;;;;;;5002801;28;20575;-45
2022/03/21 08:16:22;;;;;;;14.53;7.97;;;7.40;99.90;;;;;;5018641;28;20514;-45
2022/03/21 08:18:50;;;;;;;11.47;8.30;;;7.50;99.90;;;;;;4978379;28;21253;-45
2022/03/21 08:21:17;;;;;;;18.03;8.50;;;7.70;99.90;;;;;;5008070;28;20233;-45
2022/03/21 08:23:45;;;;;;;15.00;8.07;;;7.80;99.90;;;;;;4995956;28;20308;-44
2022/03/21 08:26:12;;;;;;;10.40;7.77;;;8.00;99.90;;;;;;4999705;28;20211;-45
2022/03/21 08:28:39;;;;;;;15.37;8.73;;;8.00;99.90;;;;;;5002411;28;20213;-45
2022/03/21 08:31:06;;;;;;;11.40;7.97;;;8.10;99.90;;;;;;5014561;28;20201;-45
2022/03/21 08:33:34;;;;;;;12.40;8.37;;;8.20;99.90;;;;;;5005451;28;20308;-45
2022/03/21 08:36:01;;;;;;;12.03;7.93;;;8.20;99.90;;;;;;5007361;28;20408;-45
2022/03/21 08:38:28;;;;;;;10.90;7.90;;;8.30;99.90;;;;;;5007899;28;20309;-45
2022/03/21 08:40:56;;;;;;;12.80;8.93;;;8.40;99.90;;;;;;4986199;28;20692;-45
2022/03/21 08:43:23;;;;;;;12.27;8.93;;;8.40;99.90;;;;;;5013845;28;20230;-45
2022/03/21 08:45:51;;;;;;;16.00;8.43;;;8.50;99.90;;;;;;5010285;28;20459;-46
2022/03/21 08:48:17;;;;;;;12.97;8.73;;;8.60;99.90;;;;;;5007978;28;20232;-46
2022/03/21 08:50:46;;;;;;;14.20;8.47;;;8.70;99.90;;;;;;5001678;28;20481;-45
2022/03/21 08:53:13;;;;;;;11.57;8.27;;;8.80;99.90;;;;;;5010277;28;20236;-45
2022/03/21 08:55:40;;;;;;;14.00;8.10;;;8.80;99.90;;;;;;5001794;28;20539;-44
2022/03/21 08:58:06;;;;;;;12.83;8.70;;;8.90;99.90;;;;;;5004262;28;20278;-46
2022/03/21 09:00:34;;;;;;;13.10;9.13;;;8.90;99.90;;;;;;5012489;28;20629;-44
2022/03/21 09:03:00;;;;;;;11.87;8.83;;;8.90;99.90;;;;;;5017399;28;20312;-45
2022/03/21 09:05:27;;;;;;;14.07;9.10;;;9.00;99.90;;;;;;4998605;28;20457;-47
2022/03/21 09:07:56;;;;;;;18.27;9.20;;;9.00;99.90;;;;;;4996390;28;20220;-45
2022/03/21 09:10:23;;;;;;;12.40;8.90;;;9.10;99.90;;;;;;5016618;28;20203;-46
2022/03/21 09:12:49;;;;;;;12.97;8.67;;;9.10;99.90;;;;;;5006483;28;20435;-45
2022/03/21 09:15:16;;;;;;;13.10;8.47;;;9.20;99.90;;;;;;5000550;28;20295;-45
2022/03/21 09:17:44;;;;;;;14.27;9.07;;;9.20;99.90;;;;;;5011997;28;20363;-45
2022/03/21 09:20:13;;;;;;;14.30;8.67;;;9.30;99.90;;;;;;5001254;28;20408;-45
2022/03/21 09:22:40;;;;;;;12.63;8.40;;;9.30;99.90;;;;;;5003970;28;20304;-45
2022/03/21 09:25:09;;;;;;;15.70;9.03;;;9.30;99.90;;;;;;5000668;28;20408;-44
2022/03/21 09:27:42;;;;;;;12.50;8.90;;;9.40;99.90;;;;;;5002492;28;20457;-49
2022/03/21 09:30:11;;;;;;;12.93;9.07;;;9.40;99.90;;;;;;5010769;28;20307;-44
2022/03/21 09:32:38;;;;;;;13.50;9.30;;;9.50;99.90;;;;;;5022889;28;20259;-46
2022/03/21 09:35:06;;;;;;;13.63;9.27;;;9.50;99.90;;;;;;5015862;28;20443;-45
2022/03/21 09:37:33;;;;;;;16.03;9.20;;;9.50;99.90;;;;;;5004207;28;21359;-45
2022/03/21 09:40:00;;;;;;;13.33;9.13;;;9.60;99.90;;;;;;4987616;28;20596;-46
2022/03/21 09:42:29;;;;;;;18.27;9.33;;;9.70;99.90;;;;;;5006788;28;20313;-45
2022/03/21 09:44:56;;;;;;;14.53;8.80;;;9.80;99.90;;;;;;5016961;28;20238;-46
2022/03/21 09:50:10;;;;;;;16.67;10.03;;;9.90;99.90;;;;;;5021313;28;21361;-43
2022/03/21 09:52:37;;;;;;;13.50;9.47;;;10.00;99.90;;;;;;5004859;28;20237;-45
2022/03/21 09:55:05;;;;;;;14.23;9.90;;;10.10;99.90;;;;;;5007735;28;20575;-43
2022/03/21 09:57:33;;;;;;;15.93;10.10;;;10.20;99.90;;;;;;5024031;28;20241;-44
2022/03/21 10:00:00;;;;;;;20.58;9.77;;;10.20;99.90;;;;;;5006792;28;20590;-48
2022/03/21 10:02:28;;;;;;;20.73;9.47;;;10.20;99.90;;;;;;5020937;28;20237;-43
2022/03/21 10:04:55;;;;;;;17.30;9.73;;;10.30;99.90;;;;;;5008878;28;20371;-47
2022/03/21 10:07:25;;;;;;;18.35;10.02;;;10.30;99.90;;;;;;5003228;28;20416;-44
2022/03/21 10:10:06;;;;;;;12.75;9.18;;;10.40;99.90;;;;;;5006247;28;20214;-47
2022/03/21 10:12:35;;;;;;;14.50;10.13;;;10.40;99.90;;;;;;5019121;28;20471;-46
2022/03/21 10:15:05;;;;;;;17.45;9.68;;;10.40;99.90;;;;;;5001314;28;20409;-49
2022/03/21 10:17:32;;;;;;;16.55;10.18;;;10.50;99.90;;;;;;5020727;28;20233;-47
2022/03/21 10:19:59;;;;;;;16.95;9.15;;;10.50;99.90;;;;;;5001590;28;20281;-49
2022/03/21 10:22:37;;;;;;;16.15;9.48;;;10.60;99.90;;;;;;5001630;28;20438;-49
2022/03/21 10:25:05;;;;;;;13.45;9.10;;;10.60;99.90;;;;;;4993732;28;20633;-47
2022/03/21 10:27:36;;;;;;;19.08;9.93;;;10.60;99.90;;;;;;5007646;28;20271;-45
2022/03/21 10:30:07;;;;;;;17.30;10.13;;;10.70;99.90;;;;;;5006148;28;20261;-49
2022/03/21 10:32:37;;;;;;;16.20;9.93;;;10.70;99.90;;;;;;5016622;28;20269;-44
2022/03/21 10:35:08;;;;;;;19.35;10.73;;;10.70;99.90;;;;;;5002853;28;20518;-48
2022/03/21 10:37:51;;;;;;;14.68;10.00;;;10.80;99.90;;;;;;5023514;28;20207;-43
2022/03/21 10:40:21;;;;;;;14.15;9.68;;;10.90;99.90;;;;;;5008297;28;20237;-46
2022/03/21 10:42:56;;;;;;;17.35;10.70;;;10.90;99.90;;;;;;5012028;28;20246;-48
2022/03/21 10:45:28;;;;;;;17.63;10.00;;;11.10;99.90;;;;;;5004182;28;20462;-46
2022/03/21 10:47:55;;;;;;;19.52;9.70;;;11.10;99.90;;;;;;5020170;28;20210;-49
2022/03/21 10:50:30;;;;;;;15.57;10.13;;;11.20;99.90;;;;;;5020839;28;20386;-46
2022/03/21 10:53:04;;;;;;;15.25;9.48;;;11.20;99.90;;;;;;4989094;28;20230;-49
2022/03/21 10:55:31;;;;;;;14.80;10.00;;;11.20;99.90;;;;;;5019755;28;20445;-46
2022/03/21 10:57:59;;;;;;;15.43;9.88;;;11.20;99.90;;;;;;5007050;28;20273;-49
2022/03/21 11:00:28;;;;;;;15.80;10.63;;;11.20;99.90;;;;;;5005563;28;20302;-47
2022/03/21 11:02:58;;;;;;;17.83;10.05;;;11.20;99.90;;;;;;5014708;28;20258;-49
2022/03/21 11:05:26;;;;;;;15.27;9.88;;;11.30;99.90;;;;;;5013454;28;20210;-43
2022/03/21 11:07:54;;;;;;;15.50;10.23;;;11.30;99.90;;;;;;5009232;28;20199;-50
2022/03/21 11:10:22;;;;;;;16.42;10.82;;;11.30;99.90;;;;;;5000096;28;20206;-45
2022/03/21 11:12:49;;;;;;;17.92;10.88;;;11.40;99.90;;;;;;5009684;28;20235;-48
2022/03/21 11:15:17;;;;;;;15.93;10.88;;;11.40;99.90;;;;;;5014173;28;20350;-47
2022/03/21 11:17:45;;;;;;;18.27;10.35;;;11.40;99.90;;;;;;5007385;28;20290;-46
2022/03/21 11:20:14;;;;;;;18.35;11.20;;;11.40;99.90;;;;;;5016693;28;20646;-47
2022/03/21 11:22:42;;;;;;;19.13;10.85;;;11.50;99.90;;;;;;5008557;28;20293;-47
2022/03/21 11:25:12;;;;;;;16.42;11.50;;;11.70;99.90;;;;;;5000155;28;20473;-45
2022/03/21 11:28:02;;;;;;;16.55;10.38;;;11.70;99.90;;;;;;5020019;28;20203;-44
2022/03/21 11:30:49;;;;;;;22.17;11.52;;;11.70;99.90;;;;;;5005091;28;20484;-46
2022/03/21 11:33:29;;;;;;;16.95;11.15;;;11.70;99.90;;;;;;5003435;28;20449;-45
2022/03/21 11:36:01;;;;;;;16.92;10.52;;;11.70;99.90;;;;;;5016146;28;20314;-48
2022/03/21 11:38:30;;;;;;;16.65;10.75;;;11.80;99.90;;;;;;5010202;28;20276;-43
2022/03/21 11:41:13;;;;;;;15.60;10.00;;;11.80;99.90;;;;;;4998309;28;20237;-49
2022/03/21 11:43:41;;;;;;;16.83;11.05;;;11.80;99.90;;;;;;5002969;28;20572;-44
2022/03/21 11:46:29;;;;;;;18.92;11.40;;;11.80;99.90;;;;;;5001731;28;20258;-44
2022/03/21 11:48:57;;;;;;;16.48;10.95;;;11.90;99.90;;;;;;4995847;28;20210;-48
2022/03/21 11:51:34;;;;;;;15.32;10.10;;;11.90;99.90;;;;;;5007549;28;20294;-49
2022/03/21 11:54:01;;;;;;;16.60;11.27;;;11.90;99.90;;;;;;5013571;28;20244;-44
2022/03/21 11:57:05;;;;;;;13.98;10.48;;;12.00;99.90;;;;;;4995394;28;20273;-49
2022/03/21 11:59:49;;;;;;;17.35;11.90;;;12.00;99.90;;;;;;5000459;28;20420;-46
2022/03/21 12:02:54;;;;;;;18.95;11.23;;;12.10;99.90;;;;;;5011868;28;20487;-49
2022/03/21 12:05:52;;;;;;;15.63;11.13;;;12.20;99.90;;;;;;5009889;28;20401;-46
2022/03/21 12:08:43;;;;;;;15.93;10.30;;;12.30;99.90;;;;;;5003039;28;20725;-43
2022/03/21 12:11:30;;;;;;;14.88;11.00;;;12.40;99.90;;;;;;4980698;28;20471;-45
2022/03/21 12:14:21;;;;;;;16.80;10.43;;;12.40;99.90;;;;;;5012186;28;20240;-48
2022/03/21 12:16:48;;;;;;;14.43;10.43;;;12.40;99.90;;;;;;5004205;28;20286;-46
2022/03/21 12:19:15;;;;;;;25.38;11.10;;;12.40;99.90;;;;;;5002652;28;20404;-44
2022/03/21 12:21:44;;;;;;;19.58;12.25;;;12.40;99.90;;;;;;5018214;28;20338;-46
2022/03/21 12:24:16;;;;;;;15.70;11.65;;;12.30;99.90;;;;;;4995813;28;20226;-45
2022/03/21 12:26:50;;;;;;;18.30;12.02;;;12.30;99.90;;;;;;5006576;28;20289;-45
2022/03/21 12:29:34;;;;;;;18.30;11.50;;;12.30;99.90;;;;;;4979975;28;23099;-45
2022/03/21 12:32:24;;;;;;;28.60;12.18;;;12.30;99.90;;;;;;5014214;28;20213;-47
2022/03/21 12:34:59;;;;;;;16.38;11.32;;;12.40;99.90;;;;;;5105908;27;20635;-47
2022/03/21 12:37:44;;;;;;;15.15;10.75;;;12.40;99.90;;;;;;5097880;27;20974;-46
2022/03/21 12:40:16;;;;;;;16.45;11.32;;;12.50;99.90;;;;;;5096964;27;20268;-45
2022/03/21 12:42:45;;;;;;;22.52;12.20;;;12.50;99.90;;;;;;5107411;27;20461;-45
2022/03/21 12:45:18;;;;;;;13.75;7.78;;;12.50;99.90;;;;;;5069880;27;20210;-46
2022/03/21 12:47:45;;;;;;;19.95;11.50;;;12.50;99.90;;;;;;5114964;27;20203;-45
2022/03/21 12:50:19;;;;;;;17.67;12.23;;;12.60;99.90;;;;;;5095250;27;20230;-47
2022/03/21 12:52:53;;;;;;;19.55;11.30;;;12.70;99.90;;;;;;5084370;27;20341;-45
2022/03/21 12:55:20;;;;;;;30.80;13.70;;;12.70;99.90;;;;;;5106263;27;20577;-46
2022/03/21 12:57:55;;;;;;;25.85;12.10;;;12.80;99.90;;;;;;5096804;27;20886;-45
2022/03/21 13:00:24;;;;;;;23.77;12.02;;;12.70;99.90;;;;;;5096658;27;20214;-46
2022/03/21 13:02:55;;;;;;;19.67;11.63;;;12.80;99.90;;;;;;5107810;27;20222;-47
2022/03/21 13:10:54;;;;;;;20.27;12.98;;;12.80;99.90;;;;;;5087980;27;20279;-44
2022/03/21 13:13:22;;;;;;;19.88;13.52;;;12.80;99.90;;;;;;5100300;27;20250;-47
2022/03/21 13:16:03;;;;;;;23.08;12.73;;;12.80;99.90;;;;;;5065842;27;20641;-45
2022/03/21 13:18:38;;;;;;;17.95;11.70;;;12.90;99.90;;;;;;5089419;27;20199;-46
2022/03/21 13:21:08;;;;;;;24.67;11.43;;;12.90;99.90;;;;;;5113686;27;20202;-47
2022/03/21 13:23:35;;;;;;;16.65;12.05;;;12.90;99.90;;;;;;5086757;27;20281;-46
2022/03/21 13:26:10;;;;;;;27.63;12.95;;;13.00;99.90;;;;;;5106942;27;20207;-45
2022/03/21 13:28:38;;;;;;;33.65;13.18;;;13.00;99.90;;;;;;5094738;27;20218;-46